createdAt,value
2024-05-09T00:00:42.223Z,11.48
2024-05-09T00:03:31.288Z,11.48
2024-05-09T00:06:01.247Z,11.50
2024-05-09T00:08:30.658Z,11.50
2024-05-09T00:10:59.520Z,11.50
2024-05-09T00:13:30.752Z,11.47
2024-05-09T00:15:59.631Z,11.44
2024-05-09T00:18:28.500Z,11.45
2024-05-09T00:21:00.609Z,11.44
2024-05-09T00:23:30.207Z,11.36
2024-05-09T00:26:00.599Z,11.28
2024-05-09T00:28:30.359Z,11.16
2024-05-09T00:31:02.508Z,11.03
2024-05-09T00:33:32.788Z,11.03
2024-05-09T00:36:02.669Z,11.01
2024-05-09T00:38:32.852Z,11.00
2024-05-09T00:41:04.279Z,10.96
2024-05-09T00:43:34.512Z,10.87
2024-05-09T00:46:06.219Z,10.88
2024-05-09T00:48:36.056Z,10.90
2024-05-09T00:51:07.324Z,10.91
2024-05-09T00:53:36.633Z,10.86
2024-05-09T00:56:07.999Z,10.88
2024-05-09T00:58:36.833Z,10.90
2024-05-09T01:01:07.825Z,10.87
2024-05-09T01:03:38.454Z,10.90
2024-05-09T01:06:09.238Z,10.96
2024-05-09T01:08:39.636Z,11.04
2024-05-09T01:11:09.924Z,11.00
2024-05-09T01:13:40.167Z,10.88
2024-05-09T01:16:09.597Z,10.96
2024-05-09T01:18:42.511Z,10.99
2024-05-09T01:21:12.516Z,10.93
2024-05-09T01:23:41.634Z,10.91
2024-05-09T01:26:13.107Z,10.89
2024-05-09T01:28:42.687Z,10.81
2024-05-09T01:31:15.794Z,10.83
2024-05-09T01:33:45.061Z,10.84
2024-05-09T01:36:14.916Z,10.82
2024-05-09T01:38:44.122Z,10.77
2024-05-09T01:41:14.398Z,10.79
2024-05-09T01:43:43.180Z,10.81
2024-05-09T01:46:16.180Z,10.77
2024-05-09T01:48:46.364Z,10.71
2024-05-09T01:51:16.642Z,10.75
2024-05-09T01:53:46.496Z,10.72
2024-05-09T01:56:16.321Z,10.64
2024-05-09T01:58:46.593Z,10.61
2024-05-09T02:01:17.487Z,10.66
2024-05-09T02:03:48.197Z,10.71
2024-05-09T02:06:18.078Z,10.71
2024-05-09T02:08:48.370Z,10.73
2024-05-09T02:11:18.331Z,10.72
2024-05-09T02:13:50.201Z,10.68
2024-05-09T02:16:19.643Z,10.73
2024-05-09T02:18:49.677Z,10.80
2024-05-09T02:21:19.805Z,10.83
2024-05-09T02:23:50.532Z,10.76
2024-05-09T02:26:21.004Z,10.76
2024-05-09T02:28:51.423Z,10.70
2024-05-09T02:31:21.657Z,10.69
2024-05-09T02:33:52.102Z,10.65
2024-05-09T02:36:22.996Z,10.64
2024-05-09T02:38:53.098Z,10.62
2024-05-09T02:41:22.835Z,10.60
2024-05-09T02:43:54.174Z,10.63
2024-05-09T02:46:25.102Z,10.64
2024-05-09T02:48:55.371Z,10.68
2024-05-09T02:51:25.401Z,10.70
2024-05-09T02:53:54.315Z,10.69
2024-05-09T02:56:24.702Z,10.70
2024-05-09T02:58:56.744Z,10.69
2024-05-09T03:01:27.756Z,10.66
2024-05-09T03:03:57.750Z,10.61
2024-05-09T03:06:27.498Z,10.50
2024-05-09T03:08:56.505Z,10.42
2024-05-09T03:11:26.212Z,10.45
2024-05-09T03:13:57.562Z,10.36
2024-05-09T03:16:27.591Z,10.35
2024-05-09T03:18:58.525Z,10.28
2024-05-09T03:21:29.356Z,10.32
2024-05-09T03:24:00.470Z,10.33
2024-05-09T03:26:30.818Z,10.40
2024-05-09T03:29:00.721Z,10.41
2024-05-09T03:31:30.839Z,10.38
2024-05-09T03:34:01.692Z,10.44
2024-05-09T03:36:31.640Z,10.48
2024-05-09T03:39:00.704Z,10.50
2024-05-09T03:41:32.084Z,10.41
2024-05-09T03:44:02.092Z,10.35
2024-05-09T03:46:37.128Z,10.39
2024-05-09T03:49:07.467Z,10.32
2024-05-09T03:51:37.916Z,10.34
2024-05-09T03:54:07.015Z,10.37
2024-05-09T03:56:36.705Z,10.38
2024-05-09T03:59:07.795Z,10.40
2024-05-09T04:01:39.192Z,10.47
2024-05-09T04:04:10.816Z,10.53
2024-05-09T04:06:41.612Z,10.45
2024-05-09T04:09:10.606Z,10.44
2024-05-09T04:11:40.185Z,10.45
2024-05-09T04:14:09.679Z,10.39
2024-05-09T04:16:38.867Z,10.27
2024-05-09T04:19:09.861Z,10.25
2024-05-09T04:21:39.282Z,10.18
2024-05-09T04:24:10.045Z,10.22
2024-05-09T04:26:40.211Z,10.25
2024-05-09T04:29:10.915Z,10.25
2024-05-09T04:31:41.269Z,10.27
2024-05-09T04:34:11.904Z,10.25
2024-05-09T04:36:44.358Z,10.29
2024-05-09T04:39:13.607Z,10.30
2024-05-09T04:41:44.078Z,10.28
2024-05-09T04:44:16.477Z,10.24
2024-05-09T04:46:50.243Z,10.22
2024-05-09T04:49:20.251Z,10.22
2024-05-09T04:51:58.819Z,10.21
2024-05-09T04:54:35.963Z,10.22
2024-05-09T04:57:06.375Z,10.23
2024-05-09T04:59:42.268Z,10.36
2024-05-09T05:02:17.995Z,10.41
2024-05-09T05:04:51.491Z,10.38
2024-05-09T05:07:20.776Z,10.46
2024-05-09T05:09:53.053Z,10.49
2024-05-09T05:12:41.738Z,10.41
2024-05-09T05:15:11.659Z,10.40
2024-05-09T05:17:43.359Z,10.44
2024-05-09T05:20:18.000Z,10.49
2024-05-09T05:22:58.226Z,10.61
2024-05-09T05:25:43.459Z,10.66
2024-05-09T05:28:20.517Z,10.65
2024-05-09T05:30:51.347Z,10.69
2024-05-09T05:33:23.454Z,10.62
2024-05-09T05:35:53.868Z,10.64
2024-05-09T05:38:27.296Z,10.63
2024-05-09T05:40:59.997Z,10.44
2024-05-09T05:43:30.663Z,10.41
2024-05-09T05:46:01.215Z,10.44
2024-05-09T05:48:30.754Z,10.44
2024-05-09T05:51:04.237Z,10.39
2024-05-09T05:53:39.795Z,10.31
2024-05-09T05:56:23.786Z,10.25
2024-05-09T05:59:16.910Z,10.30
2024-05-09T06:01:46.292Z,10.20
2024-05-09T06:04:15.670Z,10.22
2024-05-09T06:06:49.364Z,10.11
2024-05-09T06:09:21.164Z,10.08
2024-05-09T06:11:51.212Z,10.09
2024-05-09T06:14:24.119Z,10.09
2024-05-09T06:16:56.940Z,10.03
2024-05-09T06:19:35.627Z,9.97
2024-05-09T06:22:10.659Z,10.03
2024-05-09T06:24:40.379Z,10.11
2024-05-09T06:27:09.699Z,10.12
2024-05-09T06:29:41.388Z,10.11
2024-05-09T06:32:11.476Z,10.21
2024-05-09T06:34:45.467Z,10.31
2024-05-09T06:37:17.895Z,10.36
2024-05-09T06:39:48.604Z,10.41
2024-05-09T06:42:18.726Z,10.36
2024-05-09T06:44:51.408Z,10.33
2024-05-09T06:47:21.722Z,10.23
2024-05-09T06:49:54.323Z,10.20
2024-05-09T06:52:28.497Z,10.26
2024-05-09T06:54:57.907Z,10.16
2024-05-09T06:57:49.023Z,10.12
2024-05-09T07:00:30.597Z,10.07
2024-05-09T07:03:13.105Z,9.97
2024-05-09T07:05:47.203Z,9.89
2024-05-09T07:08:20.008Z,10.01
2024-05-09T07:10:51.425Z,10.05
2024-05-09T07:13:21.606Z,10.10
2024-05-09T07:15:52.165Z,10.21
2024-05-09T07:18:23.216Z,10.36
2024-05-09T07:20:56.883Z,10.25
2024-05-09T07:23:27.312Z,10.36
2024-05-09T07:26:06.284Z,10.44
2024-05-09T07:28:36.501Z,10.42
2024-05-09T07:31:07.170Z,10.52
2024-05-09T07:33:39.012Z,10.55
2024-05-09T07:36:08.527Z,10.67
2024-05-09T07:38:41.866Z,10.79
2024-05-09T07:41:13.043Z,10.79
2024-05-09T07:43:45.559Z,10.86
2024-05-09T07:54:03.028Z,10.97
2024-05-09T07:56:37.357Z,10.83
2024-05-09T07:59:11.900Z,10.75
2024-05-09T08:01:46.032Z,10.77
2024-05-09T08:04:20.858Z,10.83
2024-05-09T08:06:51.240Z,10.77
2024-05-09T08:09:21.849Z,10.78
2024-05-09T08:11:52.846Z,10.84
2024-05-09T08:14:23.712Z,10.81
2024-05-09T08:16:53.372Z,11.03
2024-05-09T08:19:24.833Z,11.05
2024-05-09T08:21:54.115Z,11.17
2024-05-09T08:24:24.534Z,11.26
2024-05-09T08:26:55.135Z,11.43
2024-05-09T08:29:25.630Z,11.60
2024-05-09T08:31:58.230Z,11.51
2024-05-09T08:34:29.595Z,11.59
2024-05-09T08:37:03.867Z,11.67
2024-05-09T08:39:40.211Z,11.78
2024-05-09T08:42:18.511Z,11.80
2024-05-09T08:44:48.865Z,11.76
2024-05-09T08:47:19.398Z,11.60
2024-05-09T08:49:52.042Z,11.62
2024-05-09T08:52:22.716Z,11.63
2024-05-09T08:54:58.206Z,11.69
2024-05-09T08:57:30.646Z,11.74
2024-05-09T09:00:12.698Z,11.83
2024-05-09T09:02:49.322Z,11.88
2024-05-09T09:05:32.217Z,11.89
2024-05-09T09:08:08.622Z,11.93
2024-05-09T09:10:46.241Z,11.99
2024-05-09T09:13:24.514Z,11.86
2024-05-09T09:16:01.519Z,11.98
2024-05-09T09:18:48.521Z,11.98
2024-05-09T09:21:21.091Z,11.97
2024-05-09T09:23:52.712Z,11.90
2024-05-09T09:26:23.924Z,11.95
2024-05-09T09:28:54.868Z,11.93
2024-05-09T09:31:25.574Z,11.92
2024-05-09T09:33:56.561Z,12.10
2024-05-09T09:36:31.969Z,12.24
2024-05-09T09:39:02.324Z,12.32
2024-05-09T09:41:35.370Z,12.39
2024-05-09T09:44:11.830Z,12.37
2024-05-09T09:46:54.057Z,12.45
2024-05-09T09:49:48.277Z,12.56
2024-05-09T09:52:26.558Z,12.58
2024-05-09T09:55:04.198Z,12.58
2024-05-09T09:57:50.895Z,12.64
2024-05-09T10:00:30.659Z,12.69
2024-05-09T10:03:09.722Z,12.71
2024-05-09T10:05:44.028Z,12.73
2024-05-09T10:08:19.048Z,12.84
2024-05-09T10:10:53.897Z,12.96
2024-05-09T10:13:35.407Z,12.99
2024-05-09T10:16:11.211Z,13.00
2024-05-09T10:18:42.318Z,13.09
2024-05-09T10:21:18.987Z,12.93
2024-05-09T10:23:59.991Z,13.04
2024-05-09T10:26:36.542Z,13.17
2024-05-09T10:29:26.976Z,13.23
2024-05-09T10:32:05.261Z,13.25
2024-05-09T10:35:00.896Z,13.23
2024-05-09T10:37:39.494Z,13.12
2024-05-09T10:40:26.353Z,13.06
2024-05-09T10:43:05.782Z,13.06
2024-05-09T10:45:42.465Z,13.03
2024-05-09T10:48:17.398Z,12.94
2024-05-09T10:50:59.145Z,12.82
2024-05-09T10:54:21.155Z,12.88
2024-05-09T10:56:59.975Z,12.86
2024-05-09T10:59:49.363Z,12.82
2024-05-09T11:02:23.088Z,12.92
2024-05-09T11:04:55.336Z,12.94
2024-05-09T11:07:28.442Z,12.96
2024-05-09T11:10:02.337Z,13.00
2024-05-09T11:12:39.853Z,13.00
2024-05-09T11:15:09.908Z,12.99
2024-05-09T11:17:41.262Z,12.95
2024-05-09T11:20:19.596Z,12.94
2024-05-09T11:22:56.608Z,12.95
2024-05-09T11:25:27.123Z,12.96
2024-05-09T11:28:01.890Z,12.95
2024-05-09T11:30:35.633Z,12.95
2024-05-09T11:33:10.900Z,12.89
2024-05-09T11:35:45.678Z,12.85
2024-05-09T11:38:15.610Z,12.85
2024-05-09T11:40:47.032Z,12.79
2024-05-09T11:43:25.271Z,12.77
2024-05-09T11:45:57.930Z,12.69
2024-05-09T11:48:57.594Z,12.72
2024-05-09T11:51:28.048Z,12.78
2024-05-09T11:53:58.336Z,12.89
2024-05-09T11:56:27.970Z,12.95
2024-05-09T11:58:57.922Z,12.98
2024-05-09T12:01:28.018Z,12.96
2024-05-09T12:03:59.174Z,12.99
2024-05-09T12:06:30.135Z,13.00
2024-05-09T12:09:02.178Z,12.96
2024-05-09T12:11:32.928Z,13.00
2024-05-09T12:14:02.412Z,12.96
2024-05-09T12:16:33.142Z,12.94
2024-05-09T12:19:02.346Z,12.92
2024-05-09T12:21:32.447Z,12.93
2024-05-09T12:24:02.225Z,12.92
2024-05-09T12:26:31.803Z,12.92
2024-05-09T12:29:01.125Z,12.94
2024-05-09T12:31:31.216Z,12.83
2024-05-09T12:34:00.810Z,12.83
2024-05-09T12:36:30.965Z,12.84
2024-05-09T12:39:01.722Z,12.79
2024-05-09T12:41:31.719Z,12.66
2024-05-09T12:44:01.852Z,12.57
2024-05-09T12:46:32.546Z,12.60
2024-05-09T12:49:02.498Z,12.66
2024-05-09T12:51:32.861Z,12.65
2024-05-09T12:54:02.723Z,12.61
2024-05-09T12:56:34.114Z,12.65
2024-05-09T12:59:04.541Z,12.67
2024-05-09T13:01:34.495Z,12.64
2024-05-09T13:04:05.177Z,12.60
2024-05-09T13:06:36.064Z,12.54
2024-05-09T13:09:07.478Z,12.53
2024-05-09T13:11:38.926Z,12.52
2024-05-09T13:14:08.858Z,12.42
2024-05-09T13:16:39.321Z,12.38
2024-05-09T13:19:11.140Z,12.37
2024-05-09T13:21:41.631Z,12.34
2024-05-09T13:24:11.282Z,12.32
2024-05-09T13:26:41.566Z,12.30
2024-05-09T13:29:11.984Z,12.29
2024-05-09T13:31:42.889Z,12.27
2024-05-09T13:34:11.891Z,12.25
2024-05-09T13:36:41.746Z,12.23
2024-05-09T13:39:12.139Z,12.24
2024-05-09T13:41:42.548Z,12.13
2024-05-09T13:44:12.392Z,12.14
2024-05-09T13:46:42.091Z,12.08
2024-05-09T13:49:16.732Z,12.07
2024-05-09T13:51:48.440Z,12.05
2024-05-09T13:54:21.092Z,12.05
2024-05-09T13:56:52.507Z,12.13
2024-05-09T13:59:24.101Z,12.16
2024-05-09T14:01:57.578Z,12.15
2024-05-09T14:04:27.165Z,12.17
2024-05-09T14:06:57.420Z,12.15
2024-05-09T14:09:28.906Z,12.09
2024-05-09T14:11:58.543Z,12.02
2024-05-09T14:14:28.174Z,11.95
2024-05-09T14:16:59.431Z,11.90
2024-05-09T14:19:29.598Z,11.87
2024-05-09T14:22:00.835Z,11.82
2024-05-09T14:24:33.222Z,11.79
2024-05-09T14:27:03.311Z,11.66
2024-05-09T14:29:35.243Z,11.61
2024-05-09T14:32:04.964Z,11.56
2024-05-09T14:34:34.453Z,11.58
2024-05-09T14:37:06.037Z,11.49
2024-05-09T14:39:35.572Z,11.37
2024-05-09T14:42:05.747Z,11.22
2024-05-09T14:44:36.100Z,11.23
2024-05-09T14:47:05.923Z,11.27
2024-05-09T14:49:35.745Z,11.24
2024-05-09T14:52:06.338Z,11.25
2024-05-09T14:54:37.321Z,11.28
2024-05-09T14:57:06.628Z,11.21
2024-05-09T14:59:37.039Z,11.14
2024-05-09T15:02:06.902Z,11.18
2024-05-09T15:04:37.808Z,11.13
2024-05-09T15:07:08.346Z,11.09
2024-05-09T15:09:39.908Z,11.16
2024-05-09T15:12:09.498Z,11.21
2024-05-09T15:14:40.534Z,11.24
2024-05-09T15:17:10.838Z,11.23
2024-05-09T15:19:41.098Z,11.18
2024-05-09T15:22:12.692Z,11.13
2024-05-09T15:24:45.091Z,11.12
2024-05-09T15:27:15.218Z,11.11
2024-05-09T15:29:44.126Z,11.12
2024-05-09T15:32:15.296Z,11.12
2024-05-09T15:34:46.734Z,11.08
2024-05-09T15:37:16.621Z,11.05
2024-05-09T15:39:50.191Z,11.05
2024-05-09T15:42:19.985Z,11.05
2024-05-09T15:44:53.332Z,11.10
2024-05-09T15:47:22.991Z,11.13
2024-05-09T15:49:53.057Z,11.08
2024-05-09T15:52:22.735Z,10.90
2024-05-09T15:54:53.793Z,10.82
2024-05-09T15:57:24.072Z,10.77
2024-05-09T15:59:54.588Z,10.72
2024-05-09T16:02:25.207Z,10.74
2024-05-09T16:04:56.521Z,10.73
2024-05-09T16:07:25.832Z,10.63
2024-05-09T16:09:56.712Z,10.50
2024-05-09T16:12:26.576Z,10.36
2024-05-09T16:14:56.346Z,10.37
2024-05-09T16:17:27.727Z,10.32
2024-05-09T16:19:58.388Z,10.35
2024-05-09T16:22:29.831Z,10.33
2024-05-09T16:24:59.167Z,10.31
2024-05-09T16:27:30.410Z,10.28
2024-05-09T16:30:04.109Z,10.28
2024-05-09T16:32:41.349Z,10.26
2024-05-09T16:35:12.325Z,10.22
2024-05-09T16:37:42.730Z,10.26
2024-05-09T16:40:21.776Z,10.19
2024-05-09T16:42:59.996Z,10.13
2024-05-09T16:45:30.287Z,10.14
2024-05-09T16:48:01.237Z,10.13
2024-05-09T16:50:34.492Z,10.11
2024-05-09T16:53:06.523Z,10.11
2024-05-09T16:55:36.816Z,10.05
2024-05-09T16:58:12.155Z,10.07
2024-05-09T17:00:43.684Z,10.09
2024-05-09T17:03:15.840Z,10.05
2024-05-09T17:05:47.470Z,10.00
2024-05-09T17:08:19.615Z,10.00
2024-05-09T17:10:50.179Z,9.99
2024-05-09T17:13:23.102Z,9.96
2024-05-09T17:15:54.485Z,10.01
2024-05-09T17:18:24.549Z,10.00
2024-05-09T17:20:54.578Z,9.99
2024-05-09T17:23:24.991Z,9.97
2024-05-09T17:25:55.607Z,9.90
2024-05-09T17:28:25.694Z,9.90
2024-05-09T17:30:55.923Z,9.88
2024-05-09T17:33:25.464Z,9.90
2024-05-09T17:35:55.017Z,9.91
2024-05-09T17:38:25.818Z,9.92
2024-05-09T17:40:59.785Z,9.92
2024-05-09T17:43:29.358Z,9.86
2024-05-09T17:45:59.490Z,9.84
2024-05-09T17:48:29.354Z,9.78
2024-05-09T17:50:58.550Z,9.72
2024-05-09T17:53:28.252Z,9.71
2024-05-09T17:56:00.105Z,9.62
2024-05-09T17:58:30.747Z,9.55
2024-05-09T18:01:01.221Z,9.55
2024-05-09T18:03:33.884Z,9.52
2024-05-09T18:06:05.388Z,9.47
2024-05-09T18:08:35.083Z,9.48
2024-05-09T18:11:05.321Z,9.52
2024-05-09T18:13:36.190Z,9.51
2024-05-09T18:16:06.495Z,9.52
2024-05-09T18:18:36.348Z,9.53
2024-05-09T18:21:06.789Z,9.56
2024-05-09T18:23:37.156Z,9.63
2024-05-09T18:26:08.487Z,9.69
2024-05-09T18:28:38.827Z,9.72
2024-05-09T18:31:08.245Z,9.76
2024-05-09T18:33:37.893Z,9.78
2024-05-09T18:36:10.272Z,9.74
2024-05-09T18:38:40.108Z,9.70
2024-05-09T18:41:10.218Z,9.71
2024-05-09T18:43:45.112Z,9.74
2024-05-09T18:46:18.839Z,9.75
2024-05-09T18:48:49.067Z,9.77
2024-05-09T18:51:18.547Z,9.76
2024-05-09T18:53:47.417Z,9.73
2024-05-09T18:56:16.941Z,9.70
2024-05-09T18:58:47.003Z,9.71
2024-05-09T19:01:17.449Z,9.61
2024-05-09T19:03:48.364Z,9.62
2024-05-09T19:06:19.728Z,9.64
2024-05-09T19:08:51.131Z,9.61
2024-05-09T19:11:21.009Z,9.65
2024-05-09T19:13:50.096Z,9.61
2024-05-09T19:16:20.676Z,9.52
2024-05-09T19:18:53.747Z,9.43
2024-05-09T19:21:22.967Z,9.44
2024-05-09T19:23:52.672Z,9.45
2024-05-09T19:26:22.729Z,9.44
2024-05-09T19:28:53.045Z,9.42
2024-05-09T19:31:22.595Z,9.45
2024-05-09T19:33:53.252Z,9.47
2024-05-09T19:36:22.047Z,9.46
2024-05-09T19:38:51.424Z,9.52
2024-05-09T19:41:21.214Z,9.49
2024-05-09T19:43:51.557Z,9.47
2024-05-09T19:46:21.235Z,9.54
2024-05-09T19:48:50.482Z,9.64
2024-05-09T19:51:20.626Z,9.73
2024-05-09T19:53:50.780Z,9.76
2024-05-09T19:56:21.492Z,9.70
2024-05-09T19:58:51.420Z,9.69
2024-05-09T20:01:20.983Z,9.61
2024-05-09T20:03:51.100Z,9.56
2024-05-09T20:06:24.259Z,9.58
2024-05-09T20:08:56.981Z,9.59
2024-05-09T20:11:27.025Z,9.62
2024-05-09T20:13:59.351Z,9.66
2024-05-09T20:16:29.379Z,9.75
2024-05-09T20:19:00.239Z,9.82
2024-05-09T20:21:30.366Z,9.90
2024-05-09T20:23:59.836Z,9.94
2024-05-09T20:26:31.027Z,9.97
2024-05-09T20:29:04.238Z,10.03
2024-05-09T20:31:33.953Z,10.07
2024-05-09T20:34:03.179Z,10.05
2024-05-09T20:36:34.224Z,10.02
2024-05-09T20:39:04.413Z,9.97
2024-05-09T20:41:36.962Z,9.90
2024-05-09T20:44:06.512Z,9.88
2024-05-09T20:46:36.113Z,9.92
2024-05-09T20:49:06.763Z,9.93
2024-05-09T20:51:36.774Z,10.01
2024-05-09T20:54:06.567Z,10.10
2024-05-09T20:56:36.369Z,10.17
2024-05-09T20:59:05.887Z,10.20
2024-05-09T21:01:36.942Z,10.21
2024-05-09T21:04:07.191Z,10.22
2024-05-09T21:06:37.507Z,10.21
2024-05-09T21:09:08.933Z,10.23
2024-05-09T21:11:38.894Z,10.27
2024-05-09T21:14:07.971Z,10.25
2024-05-09T21:16:38.126Z,10.22
2024-05-09T21:19:07.336Z,10.19
2024-05-09T21:21:42.318Z,10.07
2024-05-09T21:24:11.779Z,10.07
2024-05-09T21:26:41.925Z,10.00
2024-05-09T21:29:12.595Z,9.92
2024-05-09T21:31:42.308Z,9.76
2024-05-09T21:34:12.597Z,9.65
2024-05-09T21:36:42.142Z,9.64
2024-05-09T21:39:12.518Z,9.56
2024-05-09T21:41:42.129Z,9.56
2024-05-09T21:44:10.501Z,9.54
2024-05-09T21:46:41.246Z,9.50
2024-05-09T21:49:12.050Z,9.52
2024-05-09T21:51:41.145Z,9.57
2024-05-09T21:54:10.989Z,9.54
2024-05-09T21:56:39.910Z,9.43
2024-05-09T21:59:09.977Z,9.32
2024-05-09T22:01:40.735Z,9.28
2024-05-09T22:04:11.312Z,9.30
2024-05-09T22:06:42.019Z,9.35
2024-05-09T22:09:10.925Z,9.42
2024-05-09T22:11:42.439Z,9.47
2024-05-09T22:14:12.266Z,9.52
2024-05-09T22:16:42.173Z,9.54
2024-05-09T22:19:11.936Z,9.60
2024-05-09T22:21:41.164Z,9.61
2024-05-09T22:24:10.488Z,9.61
2024-05-09T22:26:39.585Z,9.60
2024-05-09T22:29:09.308Z,9.64
2024-05-09T22:31:39.637Z,9.71
2024-05-09T22:34:10.575Z,9.77
2024-05-09T22:36:41.416Z,9.83
2024-05-09T22:39:12.270Z,9.87
2024-05-09T22:41:41.742Z,9.92
2024-05-09T22:44:11.581Z,9.97
2024-05-09T22:46:41.073Z,9.91
2024-05-09T22:49:11.516Z,9.84
2024-05-09T22:51:41.436Z,9.79
2024-05-09T22:54:12.557Z,9.78
2024-05-09T22:56:43.035Z,9.79
2024-05-09T22:59:14.055Z,9.80
2024-05-09T23:01:44.226Z,9.83
2024-05-09T23:04:14.895Z,9.89
2024-05-09T23:06:44.618Z,9.92
2024-05-09T23:09:14.518Z,9.90
2024-05-09T23:11:45.704Z,9.94
2024-05-09T23:14:16.758Z,9.98
2024-05-09T23:16:46.985Z,9.93
2024-05-09T23:19:16.800Z,9.87
2024-05-09T23:21:46.626Z,9.78
2024-05-09T23:24:16.756Z,9.75
2024-05-09T23:26:46.003Z,9.78
2024-05-09T23:29:16.224Z,9.82
2024-05-09T23:31:46.303Z,9.87
2024-05-09T23:34:15.710Z,9.91
2024-05-09T23:36:45.108Z,9.95
2024-05-09T23:39:15.229Z,9.96
2024-05-09T23:41:45.612Z,9.97
2024-05-09T23:44:16.077Z,9.93
2024-05-09T23:46:47.103Z,9.82
2024-05-09T23:49:17.710Z,9.77
2024-05-09T23:51:48.009Z,9.80
2024-05-09T23:54:17.813Z,9.84
2024-05-09T23:56:47.709Z,9.89
2024-05-09T23:59:17.422Z,9.91
